Time;durP1;ratioP1;P1;durP2;ratioP2;P2;SDS_P1;SDS_P2;PMS_P1;PMS_P2;Temp;Humidity;BMP_temperature;BMP_pressure;BME280_temperature;BME280_humidity;BME280_pressure;Samples;Min_cycle;Max_cycle;Signal;HPM_P1;HPM_P2
2023/05/10 00:01:03;;;;;;;;;;;;;;;20.26;61.55;100615.86;2250100;78;50766;-73
2023/05/10 00:04:05;;;;;;;;;;;;;;;20.25;61.69;100610.18;2245792;78;50293;-75
2023/05/10 00:07:07;;;;;;;;;;;;;;;20.24;61.62;100602.61;2251181;79;49260;-74
2023/05/10 00:10:08;;;;;;;;;;;;;;;20.23;61.72;100604.47;2245639;78;50704;-75
2023/05/10 00:13:10;;;;;;;;;;;;;;;20.22;61.76;100601.48;2244962;78;50207;-74
2023/05/10 00:16:12;;;;;;;;;;;;;;;20.23;61.68;100603.64;2249877;79;50667;-75
2023/05/10 00:19:14;;;;;;;;;;;;;;;20.24;61.79;100595.89;2248157;78;52901;-74
2023/05/10 00:22:16;;;;;;;;;;;;;;;20.24;61.76;100593.20;2247988;78;50273;-73
2023/05/10 00:25:17;;;;;;;;;;;;;;;20.21;61.86;100593.60;2250002;79;49995;-72
2023/05/10 00:28:19;;;;;;;;;;;;;;;20.22;61.89;100588.05;2247351;78;50422;-72
2023/05/10 00:31:21;;;;;;;;;;;;;;;20.22;61.76;100586.70;2252012;79;50850;-73
2023/05/10 00:34:22;;;;;;;;;;;;;;;20.23;61.78;100576.78;2247584;79;50337;-72
2023/05/10 00:37:24;;;;;;;;;;;;;;;20.23;61.81;100576.78;2249710;79;51554;-72
2023/05/10 00:40:26;;;;;;;;;;;;;;;20.22;61.80;100574.61;2250136;79;51319;-73
2023/05/10 00:43:27;;;;;;;;;;;;;;;20.22;61.78;100573.79;2221661;79;51678;-72
2023/05/10 00:46:29;;;;;;;;;;;;;;;20.21;61.89;100564.88;2247502;79;51571;-73
2023/05/10 00:49:31;;;;;;;;;;;;;;;20.22;61.87;100568.41;2223493;78;50608;-72
2023/05/10 00:52:32;;;;;;;;;;;;;;;20.21;61.78;100563.53;2236111;79;50316;-73
2023/05/10 00:55:34;;;;;;;;;;;;;;;20.20;61.79;100563.74;2237869;79;51182;-72
2023/05/10 00:58:36;;;;;;;;;;;;;;;20.18;61.81;100566.61;2235352;79;50115;-73
2023/05/10 01:01:37;;;;;;;;;;;;;;;20.19;61.86;100562.92;2236011;79;51564;-73
2023/05/10 01:04:39;;;;;;;;;;;;;;;20.19;61.91;100558.89;2236991;78;51515;-75
2023/05/10 01:07:40;;;;;;;;;;;;;;;;;;2237766;78;52394;-72
2023/05/10 01:10:42;;;;;;;;;;;;;;;20.16;61.68;100550.38;2239800;79;52694;-72
2023/05/10 01:13:43;;;;;;;;;;;;;;;;;;2236376;78;50676;-73
2023/05/10 01:16:45;;;;;;;;;;;;;;;20.16;61.58;100543.14;2235741;79;51611;-73
2023/05/10 01:19:46;;;;;;;;;;;;;;;20.16;61.80;100539.11;2243332;79;50750;-73
2023/05/10 01:22:52;;;;;;;;;;;;;;;20.18;61.86;100542.44;2244182;79;52316;-72
2023/05/10 01:26:01;;;;;;;;;;;;;;;20.18;61.91;100546.47;2244304;79;51566;-72
2023/05/10 01:29:02;;;;;;;;;;;;;;;;;;2243152;79;50351;-72
2023/05/10 01:32:22;;;;;;;;;;;;;;;20.18;62.00;100540.27;2244328;79;50716;-73
2023/05/10 01:35:25;;;;;;;;;;;;;;;20.19;61.96;100537.39;2244166;78;50398;-73
2023/05/10 01:38:41;;;;;;;;;;;;;;;20.18;61.88;100537.06;2205960;79;49672;-72
2023/05/10 01:41:42;;;;;;;;;;;;;;;;;;2244013;79;51653;-72
2023/05/10 01:45:02;;;;;;;;;;;;;;;20.16;61.89;100533.73;2244282;79;50302;-72
2023/05/10 01:48:07;;;;;;;;;;;;;;;20.16;61.94;100527.02;2246867;77;51557;-72
2023/05/10 01:51:07;;;;;;;;;;;;;;;;;;2245943;78;51462;-73
2023/05/10 01:54:09;;;;;;;;;;;;;;;20.16;61.88;100528.88;2251603;77;50867;-73
2023/05/10 01:57:13;;;;;;;;;;;;;;;20.15;61.87;100528.06;2249767;79;51475;-72
2023/05/10 02:00:14;;;;;;;;;;;;;;;20.15;61.94;100517.31;2250492;78;22323;-73
2023/05/10 02:03:16;;;;;;;;;;;;;;;20.16;61.94;100520.30;2249996;79;52017;-73
2023/05/10 02:06:18;;;;;;;;;;;;;;;20.16;61.83;100520.83;2249856;79;51460;-73
2023/05/10 02:09:20;;;;;;;;;;;;;;;20.14;61.89;100518.35;2250011;78;51614;-74
2023/05/10 02:12:22;;;;;;;;;;;;;;;20.16;61.87;100526.20;2249993;79;50323;-73
2023/05/10 02:15:24;;;;;;;;;;;;;;;20.14;61.76;100521.03;2249727;78;50689;-74
2023/05/10 02:18:26;;;;;;;;;;;;;;;20.14;61.86;100521.52;2238022;78;52399;-74
2023/05/10 02:21:28;;;;;;;;;;;;;;;20.12;62.02;100519.05;2246527;79;51502;-74
2023/05/10 02:24:29;;;;;;;;;;;;;;;20.12;61.96;100517.71;2250222;78;50622;-73
2023/05/10 02:27:31;;;;;;;;;;;;;;;20.10;62.12;100517.07;2249154;78;51358;-74
2023/05/10 02:30:33;;;;;;;;;;;;;;;20.09;62.12;100510.05;2238255;78;52600;-74
2023/05/10 02:33:35;;;;;;;;;;;;;;;20.11;62.02;100507.16;2249727;78;51620;-73
2023/05/10 02:36:36;;;;;;;;;;;;;;;20.11;61.94;100505.29;2249862;78;50702;-74
2023/05/10 02:39:43;;;;;;;;;;;;;;;20.11;61.92;100506.63;2249120;79;51592;-73
2023/05/10 02:42:42;;;;;;;;;;;;;;;20.10;61.94;100504.98;2249468;78;22426;-74
2023/05/10 02:45:43;;;;;;;;;;;;;;;20.11;62.00;100507.97;2223378;79;50305;-74
2023/05/10 02:48:45;;;;;;;;;;;;;;;20.11;61.91;100507.97;2234096;77;51611;-74
2023/05/10 02:51:48;;;;;;;;;;;;;;;20.10;61.88;100504.16;2213104;79;51462;-73
2023/05/10 02:54:50;;;;;;;;;;;;;;;20.10;61.90;100517.07;2207065;80;51070;-74
2023/05/10 02:57:53;;;;;;;;;;;;;;;20.10;61.90;100509.02;2205510;80;51585;-74
2023/05/10 03:00:54;;;;;;;;;;;;;;;20.10;61.87;100507.67;2205556;80;50059;-75
2023/05/10 03:03:56;;;;;;;;;;;;;;;20.09;61.83;100503.34;2205556;80;50318;-74
2023/05/10 03:06:58;;;;;;;;;;;;;;;20.09;61.82;100515.91;2206976;80;51182;-74
2023/05/10 03:09:59;;;;;;;;;;;;;;;20.07;61.84;100504.04;2205801;80;50750;-74
2023/05/10 03:13:18;;;;;;;;;;;;;;;20.08;61.86;100503.00;2205791;80;51434;-74
2023/05/10 03:16:21;;;;;;;;;;;;;;;20.06;61.85;100511.77;2205123;80;50353;-74
2023/05/10 03:19:23;;;;;;;;;;;;;;;20.06;61.82;100507.73;2245552;78;51721;-73
2023/05/10 03:22:29;;;;;;;;;;;;;;;20.07;61.74;100504.56;2244074;79;50390;-74
2023/05/10 03:25:31;;;;;;;;;;;;;;;20.06;61.81;100507.73;2190587;79;52390;-75
2023/05/10 03:28:33;;;;;;;;;;;;;;;20.06;61.84;100510.42;2243689;79;50386;-75
2023/05/10 03:31:34;;;;;;;;;;;;;;;20.04;61.83;100508.95;2229216;79;49789;-73
2023/05/10 03:34:37;;;;;;;;;;;;;;;20.04;61.78;100504.44;2244260;79;50283;-74
2023/05/10 03:37:39;;;;;;;;;;;;;;;20.02;61.88;100498.42;2217899;79;51544;-74
2023/05/10 03:40:41;;;;;;;;;;;;;;;20.03;61.83;100503.28;2244009;77;50402;-74
2023/05/10 03:43:42;;;;;;;;;;;;;;;20.01;61.88;100502.13;2244058;79;50276;-74
2023/05/10 03:46:44;;;;;;;;;;;;;;;20.03;61.94;100507.31;2217657;79;50556;-74
2023/05/10 03:49:45;;;;;;;;;;;;;;;20.02;61.94;100502.45;2231747;79;51583;-73
2023/05/10 03:52:47;;;;;;;;;;;;;;;20.01;61.93;100503.46;2218050;79;51445;-73
2023/05/10 03:55:49;;;;;;;;;;;;;;;20.01;61.95;100498.09;2194424;79;51724;-73
2023/05/10 03:58:50;;;;;;;;;;;;;;;20.01;61.89;100496.75;2243830;79;50481;-74
2023/05/10 04:01:52;;;;;;;;;;;;;;;19.99;61.99;100500.17;2217267;79;50224;-74
2023/05/10 04:04:54;;;;;;;;;;;;;;;19.99;61.97;100494.27;2244027;79;50727;-73
2023/05/10 04:07:55;;;;;;;;;;;;;;;20.00;62.03;100496.45;2228644;79;52516;-74
2023/05/10 04:11:09;;;;;;;;;;;;;;;20.02;61.94;100502.45;2238775;77;51545;-73
2023/05/10 04:14:10;;;;;;;;;;;;;;;19.98;61.84;100500.66;2238745;79;50784;-74
2023/05/10 04:17:12;;;;;;;;;;;;;;;19.98;61.73;100499.83;2217162;79;51425;-73
2023/05/10 04:20:14;;;;;;;;;;;;;;;19.98;61.72;100495.80;2194269;79;52405;-75
2023/05/10 04:23:16;;;;;;;;;;;;;;;19.98;61.67;100497.14;2217990;79;50807;-74
2023/05/10 04:26:18;;;;;;;;;;;;;;;19.99;61.57;100494.80;2243681;79;50330;-73
2023/05/10 04:29:19;;;;;;;;;;;;;;;19.99;61.54;100490.77;2218604;79;50067;-73
2023/05/10 04:32:21;;;;;;;;;;;;;;;20.00;61.67;100495.10;2195173;79;51481;-73
2023/05/10 04:35:22;;;;;;;;;;;;;;;20.01;61.51;100492.72;2245065;79;50727;-73
2023/05/10 04:38:24;;;;;;;;;;;;;;;20.01;61.36;100492.72;2244699;79;51472;-73
2023/05/10 04:41:26;;;;;;;;;;;;;;;20.02;61.83;100489.03;2235239;78;50639;-74
2023/05/10 04:44:27;;;;;;;;;;;;;;;20.02;61.86;100489.03;2210926;79;49619;-74
2023/05/10 04:47:29;;;;;;;;;;;;;;;20.02;61.46;100487.69;2252067;77;50684;-75
2023/05/10 04:50:31;;;;;;;;;;;;;;;19.97;61.82;100481.55;2216194;79;51676;-73
2023/05/10 04:53:33;;;;;;;;;;;;;;;19.99;60.75;100481.37;2218566;79;50713;-73
2023/05/10 04:56:34;;;;;;;;;;;;;;;19.99;60.83;100476.00;2244507;79;50709;-73
2023/05/10 04:59:37;;;;;;;;;;;;;;;20.00;60.68;100484.36;2218766;79;51514;-75
2023/05/10 05:02:39;;;;;;;;;;;;;;;20.00;60.68;100477.64;2257519;77;50089;-75
2023/05/10 05:05:40;;;;;;;;;;;;;;;20.04;61.04;100483.44;2282279;77;51536;-74
2023/05/10 05:08:42;;;;;;;;;;;;;;;20.11;60.97;100477.09;2271194;77;51538;-76
2023/05/10 05:11:43;;;;;;;;;;;;;;;20.20;61.11;100477.25;2286248;77;50704;-78
2023/05/10 05:14:45;;;;;;;;;;;;;;;20.30;61.16;100476.91;2288642;77;50241;-76
2023/05/10 05:17:46;;;;;;;;;;;;;;;20.53;61.02;100474.44;2270296;77;50756;-76
2023/05/10 05:20:48;;;;;;;;;;;;;;;20.55;61.04;100467.86;2257650;77;51233;-76
2023/05/10 05:23:50;;;;;;;;;;;;;;;20.59;61.51;100467.75;2264592;77;50307;-75
2023/05/10 05:26:51;;;;;;;;;;;;;;;20.61;60.84;100469.73;2229340;77;51623;-75
2023/05/10 05:29:53;;;;;;;;;;;;;;;20.68;60.80;100466.23;2279127;78;51805;-76
2023/05/10 05:32:55;;;;;;;;;;;;;;;20.72;61.21;100470.19;2272068;77;51204;-75
2023/05/10 05:35:57;;;;;;;;;;;;;;;20.79;62.23;100465.15;2243963;79;50419;-76
2023/05/10 05:38:58;;;;;;;;;;;;;;;20.82;62.63;100459.88;2243923;79;50354;-77
2023/05/10 05:42:00;;;;;;;;;;;;;;;20.82;62.56;100462.56;2244054;78;50747;-76
2023/05/10 05:45:01;;;;;;;;;;;;;;;20.94;62.06;100458.27;2199774;79;51178;-76
2023/05/10 05:48:03;;;;;;;;;;;;;;;21.00;61.56;100467.37;2224308;79;50448;-74
2023/05/10 05:51:05;;;;;;;;;;;;;;;21.03;60.86;100459.72;2167915;80;52479;-73
2023/05/10 05:54:06;;;;;;;;;;;;;;;21.08;60.51;100455.89;2186688;79;51435;-73
2023/05/10 05:57:08;;;;;;;;;;;;;;;21.13;60.75;100461.19;2270764;77;50980;-73
2023/05/10 06:00:10;;;;;;;;;;;;;;;21.15;60.83;100456.44;2256703;77;51542;-74
2023/05/10 06:03:12;;;;;;;;;;;;;;;21.19;60.83;100462.53;2279408;77;50095;-75
2023/05/10 06:06:13;;;;;;;;;;;;;;;21.25;60.62;100464.95;2283652;77;51445;-74
2023/05/10 06:09:15;;;;;;;;;;;;;;;21.25;60.24;100464.95;2235406;78;50216;-74
2023/05/10 06:12:17;;;;;;;;;;;;;;;21.32;59.29;100471.14;2235787;78;51619;-75
2023/05/10 06:15:19;;;;;;;;;;;;;;;21.31;58.80;100466.80;2257019;78;52467;-76
2023/05/10 06:18:20;;;;;;;;;;;;;;;21.33;58.66;100477.37;2265998;77;51472;-76
2023/05/10 06:21:22;;;;;;;;;;;;;;;21.29;58.75;100466.99;2274988;78;51351;-75
2023/05/10 06:24:23;;;;;;;;;;;;;;;21.35;58.70;100456.44;2275841;78;51554;-76
2023/05/10 06:27:25;;;;;;;;;;;;;;;21.35;58.67;100476.14;2275847;76;51451;-76
2023/05/10 06:30:30;;;;;;;;;;;;;;;21.34;58.68;100461.53;2275979;78;50310;-76
2023/05/10 06:33:31;;;;;;;;;;;;;;;21.36;58.69;100464.33;2217161;78;50140;-76
2023/05/10 06:36:33;;;;;;;;;;;;;;;21.39;58.62;100463.11;2275967;78;51551;-76
2023/05/10 06:39:34;;;;;;;;;;;;;;;21.41;58.53;100459.70;2240757;78;51429;-75
2023/05/10 06:42:36;;;;;;;;;;;;;;;21.41;58.49;100467.25;2240707;78;50233;-76
2023/05/10 06:45:37;;;;;;;;;;;;;;;21.42;58.44;100460.00;2216629;78;49562;-75
2023/05/10 06:48:39;;;;;;;;;;;;;;;21.43;58.44;100458.98;2233922;78;50381;-75
2023/05/10 06:51:41;;;;;;;;;;;;;;;21.44;58.37;100460.11;2258900;78;50645;-75
2023/05/10 06:54:42;;;;;;;;;;;;;;;21.43;58.33;100458.47;2267942;77;51438;-75
2023/05/10 06:57:44;;;;;;;;;;;;;;;21.46;58.29;100462.61;2257799;78;52344;-75
2023/05/10 07:00:46;;;;;;;;;;;;;;;21.46;58.21;100464.78;2233146;78;51379;-76
2023/05/10 07:03:48;;;;;;;;;;;;;;;21.49;58.17;100464.36;2233496;78;50798;-76
2023/05/10 07:06:49;;;;;;;;;;;;;;;21.48;58.10;100455.16;2267917;78;51442;-76
2023/05/10 07:09:51;;;;;;;;;;;;;;;21.50;58.02;100461.14;2258356;78;51797;-75
2023/05/10 07:12:52;;;;;;;;;;;;;;;;;;2268264;78;50775;-75
2023/05/10 07:15:53;;;;;;;;;;;;;;;21.50;57.83;100457.95;2268744;78;51509;-75
2023/05/10 07:18:55;;;;;;;;;;;;;;;21.50;57.79;100449.02;2221645;78;49841;-75
2023/05/10 07:21:57;;;;;;;;;;;;;;;21.52;57.71;100450.48;2217809;78;52358;-75
2023/05/10 07:24:59;;;;;;;;;;;;;;;21.49;57.75;100448.73;2241868;78;51485;-75
2023/05/10 07:28:00;;;;;;;;;;;;;;;21.50;57.67;100446.33;2241546;78;50719;-75
2023/05/10 07:31:02;;;;;;;;;;;;;;;21.48;57.64;100442.52;2277001;78;51580;-76
2023/05/10 07:34:03;;;;;;;;;;;;;;;21.51;57.56;100446.66;2217435;78;52551;-75
2023/05/10 07:37:06;;;;;;;;;;;;;;;21.50;57.50;100449.88;2241432;78;51461;-75
2023/05/10 07:40:08;;;;;;;;;;;;;;;21.52;57.53;100454.52;2277310;78;50694;-75
2023/05/10 07:43:09;;;;;;;;;;;;;;;21.49;57.52;100452.24;2241690;78;50658;-75
2023/05/10 07:46:11;;;;;;;;;;;;;;;21.51;57.44;100455.56;2269380;78;51148;-75
2023/05/10 07:49:12;;;;;;;;;;;;;;;21.51;57.37;100453.39;2225500;78;50238;-75
2023/05/10 07:52:15;;;;;;;;;;;;;;;21.51;57.34;100451.52;2241456;78;50734;-75
2023/05/10 07:55:16;;;;;;;;;;;;;;;21.53;57.28;100449.46;2277118;78;50328;-75
2023/05/10 07:58:18;;;;;;;;;;;;;;;21.52;57.29;100449.66;2217148;78;51344;-75
2023/05/10 08:01:20;;;;;;;;;;;;;;;21.52;57.23;100437.02;2241331;78;50628;-73
2023/05/10 08:04:22;;;;;;;;;;;;;;;21.50;57.26;100445.84;2276915;78;50634;-75
2023/05/10 08:07:24;;;;;;;;;;;;;;;21.52;57.14;100445.09;2276740;78;51533;-77
2023/05/10 08:10:26;;;;;;;;;;;;;;;21.51;57.12;100439.94;2244505;78;52397;-74
2023/05/10 08:13:28;;;;;;;;;;;;;;;21.49;57.21;100442.82;2276760;78;50640;-74
2023/05/10 08:16:29;;;;;;;;;;;;;;;21.46;57.15;100445.94;2241495;78;50092;-75
2023/05/10 08:19:31;;;;;;;;;;;;;;;21.46;57.14;100447.28;2267889;78;50678;-75
2023/05/10 08:22:32;;;;;;;;;;;;;;;21.45;57.16;100450.16;2268867;77;50005;-74
2023/05/10 08:25:34;;;;;;;;;;;;;;;21.42;57.17;100442.51;2209737;78;51654;-75
2023/05/10 08:28:35;;;;;;;;;;;;;;;21.43;57.15;100440.97;2233684;78;51537;-75
2023/05/10 08:31:37;;;;;;;;;;;;;;;21.43;57.12;100445.53;2233968;78;51556;-75
2023/05/10 08:34:39;;;;;;;;;;;;;;;21.39;57.16;100453.69;2268991;77;50668;-74
2023/05/10 08:37:40;;;;;;;;;;;;;;;21.38;57.20;100451.52;2268739;78;51526;-75
2023/05/10 08:40:42;;;;;;;;;;;;;;;21.35;57.22;100445.67;2269104;77;50613;-76
2023/05/10 08:43:46;;;;;;;;;;;;;;;21.31;57.31;100446.62;2269299;78;50775;-76
2023/05/10 08:46:47;;;;;;;;;;;;;;;21.30;57.25;100445.80;2234493;78;22475;-75
2023/05/10 08:49:50;;;;;;;;;;;;;;;21.27;57.37;100454.78;2215063;78;51219;-75
2023/05/10 08:52:52;;;;;;;;;;;;;;;21.27;57.41;100461.51;2258520;78;50766;-76
2023/05/10 08:55:54;;;;;;;;;;;;;;;21.24;57.40;100451.98;2269064;78;50363;-75
2023/05/10 08:58:56;;;;;;;;;;;;;;;21.23;57.43;100449.52;2233630;78;50056;-75
2023/05/10 09:01:58;;;;;;;;;;;;;;;21.21;57.39;100455.61;2258817;78;51021;-75
2023/05/10 09:05:00;;;;;;;;;;;;;;;21.20;57.40;100456.66;2233676;78;50295;-75
2023/05/10 09:08:02;;;;;;;;;;;;;;;21.21;57.37;100447.54;2268777;77;51537;-75
2023/05/10 09:11:04;;;;;;;;;;;;;;;21.18;57.36;100455.50;2269181;77;50763;-74
2023/05/10 09:14:05;;;;;;;;;;;;;;;21.20;57.24;100456.14;2258923;78;50848;-74
2023/05/10 09:17:07;;;;;;;;;;;;;;;21.20;57.16;100449.41;2268678;77;51569;-74
2023/05/10 09:20:09;;;;;;;;;;;;;;;21.19;57.16;100452.29;2243701;78;50648;-75
2023/05/10 09:23:10;;;;;;;;;;;;;;;21.16;57.14;100458.91;2265760;78;50739;-75
2023/05/10 09:26:12;;;;;;;;;;;;;;;21.16;57.11;100458.09;2267355;78;51218;-75
2023/05/10 09:29:13;;;;;;;;;;;;;;;21.14;57.16;100453.42;2265906;78;50399;-75
2023/05/10 09:32:15;;;;;;;;;;;;;;;21.09;57.14;100461.61;2267467;78;51757;-75
2023/05/10 09:35:17;;;;;;;;;;;;;;;21.09;57.21;100466.98;2266056;78;50648;-75
2023/05/10 09:38:19;;;;;;;;;;;;;;;21.07;57.23;100467.70;2267211;78;51125;-75
2023/05/10 09:41:21;;;;;;;;;;;;;;;21.06;57.29;100463.86;2265577;78;51624;-75
2023/05/10 09:44:23;;;;;;;;;;;;;;;21.05;57.32;100466.25;2266082;78;50552;-75
2023/05/10 09:47:25;;;;;;;;;;;;;;;21.02;57.34;100468.83;2265547;78;51966;-75
2023/05/10 09:50:27;;;;;;;;;;;;;;;21.02;57.32;100459.41;2266874;77;52348;-75
2023/05/10 09:53:29;;;;;;;;;;;;;;;21.01;57.26;100462.30;2241233;78;52306;-76
2023/05/10 09:56:35;;;;;;;;;;;;;;;20.98;57.32;100466.22;2276376;78;50386;-75
2023/05/10 09:59:36;;;;;;;;;;;;;;;20.98;57.31;100463.53;2224833;78;51681;-75
2023/05/10 10:02:39;;;;;;;;;;;;;;;20.98;57.32;100465.40;2265777;77;52512;-75
2023/05/10 10:05:41;;;;;;;;;;;;;;;20.98;57.29;100462.19;2268543;77;50364;-75
2023/05/10 10:08:43;;;;;;;;;;;;;;;20.96;57.36;100458.05;2258788;78;51716;-75
2023/05/10 10:11:44;;;;;;;;;;;;;;;20.94;57.40;100463.64;2268691;78;51499;-75
2023/05/10 10:14:47;;;;;;;;;;;;;;;20.93;57.33;100461.97;2258764;78;52365;-75
2023/05/10 10:17:49;;;;;;;;;;;;;;;20.92;57.43;100461.67;2268488;78;50444;-75
2023/05/10 10:20:51;;;;;;;;;;;;;;;20.94;57.34;100466.33;2268613;78;51527;-75
2023/05/10 10:23:52;;;;;;;;;;;;;;;20.93;57.34;100463.83;2268592;78;50968;-75
2023/05/10 10:26:55;;;;;;;;;;;;;;;20.92;57.34;100463.02;2258561;78;52787;-76
2023/05/10 10:30:17;;;;;;;;;;;;;;;20.90;57.38;100461.55;2256076;78;50146;-76
2023/05/10 10:33:32;;;;;;;;;;;;;;;20.89;57.41;100447.28;2183766;80;50680;-76
2023/05/10 10:36:36;;;;;;;;;;;;;;;20.87;57.43;100450.16;2180675;81;50316;-76
2023/05/10 10:39:38;;;;;;;;;;;;;;;20.88;57.39;100450.98;2180169;81;51752;-75
2023/05/10 10:42:49;;;;;;;;;;;;;;;20.87;57.41;100454.72;2155005;81;50703;-76
2023/05/10 10:46:11;;;;;;;;;;;;;;;20.87;57.39;100452.86;2156122;81;50871;-76
2023/05/10 10:49:12;;;;;;;;;;;;;;;20.87;57.39;100448.00;2181750;81;50873;-76
2023/05/10 10:52:16;;;;;;;;;;;;;;;20.87;57.39;100450.69;2155549;81;51236;-75
2023/05/10 10:55:18;;;;;;;;;;;;;;;20.87;57.32;100445.31;2182722;80;50687;-76
2023/05/10 10:58:30;;;;;;;;;;;;;;;20.89;57.29;100466.11;2179259;81;50435;-75
2023/05/10 11:01:35;;;;;;;;;;;;;;;20.82;57.35;100451.81;2181436;79;50792;-75
2023/05/10 11:04:38;;;;;;;;;;;;;;;20.79;57.42;100446.33;2219509;78;50528;-75
2023/05/10 11:07:41;;;;;;;;;;;;;;;20.78;57.46;100448.71;2254637;79;50284;-74
2023/05/10 11:10:51;;;;;;;;;;;;;;;20.77;57.47;100443.00;2257362;78;50427;-76
2023/05/10 11:13:53;;;;;;;;;;;;;;;20.75;57.51;100449.61;2256948;79;51540;-76
2023/05/10 11:16:54;;;;;;;;;;;;;;;20.76;57.47;100445.91;2252114;78;52670;-76
2023/05/10 11:20:12;;;;;;;;;;;;;;;20.74;57.48;100438.03;2248824;78;52610;-77
2023/05/10 11:23:15;;;;;;;;;;;;;;;20.75;57.50;100441.55;2242706;78;51489;-76
2023/05/10 11:26:17;;;;;;;;;;;;;;;20.74;57.52;100447.45;2243120;78;51639;-75
2023/05/10 11:29:19;;;;;;;;;;;;;;;20.74;57.53;100439.91;2246605;79;51503;-78
2023/05/10 11:32:20;;;;;;;;;;;;;;;20.73;57.52;100442.25;2245992;79;50438;-76
2023/05/10 11:35:22;;;;;;;;;;;;;;;20.74;57.51;100438.55;2244258;79;50223;-76
2023/05/10 11:38:23;;;;;;;;;;;;;;;20.72;57.58;100432.55;2243931;79;50078;-75
2023/05/10 11:41:25;;;;;;;;;;;;;;;20.73;57.55;100432.36;2194302;79;52169;-76
2023/05/10 11:44:31;;;;;;;;;;;;;;;20.72;57.55;100440.61;2217484;79;50435;-75
2023/05/10 11:47:32;;;;;;;;;;;;;;;20.71;57.58;100431.72;2243720;79;51615;-75
2023/05/10 11:50:34;;;;;;;;;;;;;;;20.71;57.56;100433.59;2246614;78;51513;-75
2023/05/10 11:53:36;;;;;;;;;;;;;;;20.71;57.59;100432.25;2245565;78;50619;-75
2023/05/10 11:56:38;;;;;;;;;;;;;;;20.71;57.60;100439.79;2217623;79;51475;-75
2023/05/10 11:59:40;;;;;;;;;;;;;;;20.70;57.61;100432.73;2244090;79;51571;-75
2023/05/10 12:02:41;;;;;;;;;;;;;;;20.68;57.69;100433.97;2244020;79;51457;-74
2023/05/10 12:05:43;;;;;;;;;;;;;;;20.70;57.61;100436.77;2229546;78;52358;-75
2023/05/10 12:08:46;;;;;;;;;;;;;;;20.69;57.66;100435.64;2243802;79;51439;-74
2023/05/10 12:11:47;;;;;;;;;;;;;;;20.68;57.68;100440.69;2218049;79;50211;-74
2023/05/10 12:14:52;;;;;;;;;;;;;;;20.66;57.74;100440.39;2243976;79;50288;-74
2023/05/10 12:17:54;;;;;;;;;;;;;;;20.64;57.77;100442.44;2228062;79;51388;-75
2023/05/10 12:20:56;;;;;;;;;;;;;;;20.65;57.78;100441.43;2219557;78;51576;-73
2023/05/10 12:24:02;;;;;;;;;;;;;;;20.66;57.77;100441.73;2200242;81;50747;-75
2023/05/10 12:27:07;;;;;;;;;;;;;;;20.65;57.79;100436.55;2199785;81;50318;-75
2023/05/10 12:30:09;;;;;;;;;;;;;;;20.68;57.75;100443.38;2178066;81;51043;-75
2023/05/10 12:33:11;;;;;;;;;;;;;;;20.69;57.73;100447.22;2201772;79;51447;-75
2023/05/10 12:36:14;;;;;;;;;;;;;;;20.71;57.68;100452.41;2199864;81;50468;-75
2023/05/10 12:39:15;;;;;;;;;;;;;;;20.72;57.68;100450.02;2200565;79;51628;-75
2023/05/10 12:42:17;;;;;;;;;;;;;;;20.73;57.65;100451.66;2178005;80;52256;-74
2023/05/10 12:45:18;;;;;;;;;;;;;;;20.73;57.61;100443.11;2201980;80;51531;-74
2023/05/10 12:48:20;;;;;;;;;;;;;;;20.74;57.64;100447.97;2201488;80;50649;-74
2023/05/10 12:51:22;;;;;;;;;;;;;;;20.74;57.61;100447.45;2188049;79;50251;-74
2023/05/10 12:54:24;;;;;;;;;;;;;;;20.76;57.63;100456.66;2152162;80;52475;-75
2023/05/10 12:57:26;;;;;;;;;;;;;;;20.76;57.60;100453.98;2200239;79;51550;-75
2023/05/10 13:00:27;;;;;;;;;;;;;;;20.77;57.57;100451.59;2200171;79;51545;-75
2023/05/10 13:03:29;;;;;;;;;;;;;;;20.77;57.58;100444.34;2200870;79;51557;-75
2023/05/10 13:06:31;;;;;;;;;;;;;;;20.79;57.59;100450.87;2201823;79;52545;-76
2023/05/10 13:09:33;;;;;;;;;;;;;;;20.78;57.55;100451.40;2200068;79;50325;-75
2023/05/10 13:12:35;;;;;;;;;;;;;;;20.79;57.60;100450.87;2200087;80;50725;-75
2023/05/10 13:15:37;;;;;;;;;;;;;;;20.80;57.60;100447.14;2200969;79;50350;-75
2023/05/10 13:18:38;;;;;;;;;;;;;;;20.79;57.60;100450.36;2185733;79;52333;-76
2023/05/10 13:21:44;;;;;;;;;;;;;;;20.80;57.62;100443.11;2225449;79;50250;-75
2023/05/10 13:24:45;;;;;;;;;;;;;;;20.81;57.66;100446.13;2244181;79;50722;-74
2023/05/10 13:27:47;;;;;;;;;;;;;;;20.80;57.72;100446.63;2243750;79;50215;-75
2023/05/10 13:30:48;;;;;;;;;;;;;;;20.82;57.64;100432.98;2244124;79;50242;-75
2023/05/10 13:33:50;;;;;;;;;;;;;;;20.82;57.69;100434.33;2242919;78;50886;-75
2023/05/10 13:36:52;;;;;;;;;;;;;;;20.84;57.70;100438.48;2243894;79;51453;-74
2023/05/10 13:39:54;;;;;;;;;;;;;;;20.87;57.71;100435.90;2243840;79;51600;-74
2023/05/10 13:42:56;;;;;;;;;;;;;;;20.87;57.70;100435.38;2254008;78;51675;-74
2023/05/10 13:45:57;;;;;;;;;;;;;;;20.89;57.73;100440.56;2243842;79;51413;-75
2023/05/10 13:48:59;;;;;;;;;;;;;;;20.90;57.72;100436.83;2225651;77;51517;-74
2023/05/10 13:52:06;;;;;;;;;;;;;;;20.91;57.74;100440.34;2212805;79;51433;-75
2023/05/10 13:55:07;;;;;;;;;;;;;;;20.93;57.75;100436.94;2206134;80;22365;-75
2023/05/10 13:58:08;;;;;;;;;;;;;;;20.94;57.73;100436.75;2180500;80;50635;-74
2023/05/10 14:01:11;;;;;;;;;;;;;;;20.96;57.73;100441.41;2180723;80;50634;-74
2023/05/10 14:04:13;;;;;;;;;;;;;;;20.97;57.75;100435.52;2180784;80;50112;-74
2023/05/10 14:07:14;;;;;;;;;;;;;;;20.98;57.87;100437.98;2157554;80;51471;-75
2023/05/10 14:10:16;;;;;;;;;;;;;;;20.98;57.87;100439.84;2205955;80;49883;-74
2023/05/10 14:13:18;;;;;;;;;;;;;;;20.99;57.84;100432.93;2179876;80;49972;-75
2023/05/10 14:16:20;;;;;;;;;;;;;;;21.01;57.91;100438.09;2205704;80;50627;-74
2023/05/10 14:19:21;;;;;;;;;;;;;;;21.03;57.87;100434.68;2180291;79;51458;-74
2023/05/10 14:22:23;;;;;;;;;;;;;;;21.03;57.85;100427.44;2215940;79;51651;-75
2023/05/10 14:25:25;;;;;;;;;;;;;;;21.05;57.86;100438.00;2235276;78;50601;-75
2023/05/10 14:28:26;;;;;;;;;;;;;;;21.06;57.92;100436.95;2243612;79;51414;-75
2023/05/10 14:31:29;;;;;;;;;;;;;;;21.06;57.94;100433.75;2234609;79;51604;-74
2023/05/10 14:34:31;;;;;;;;;;;;;;;21.07;57.95;100421.97;2218195;79;50662;-75
2023/05/10 14:37:33;;;;;;;;;;;;;;;21.08;58.00;100433.03;2243964;79;50396;-76
2023/05/10 14:40:34;;;;;;;;;;;;;;;21.10;57.99;100428.28;2244091;79;50290;-75
2023/05/10 14:43:36;;;;;;;;;;;;;;;21.08;58.08;100422.27;2235353;79;50113;-75
2023/05/10 14:46:39;;;;;;;;;;;;;;;21.11;58.04;100430.45;2217619;79;50319;-75
2023/05/10 14:49:40;;;;;;;;;;;;;;;21.10;58.04;100435.00;2216033;79;51538;-74
2023/05/10 14:52:42;;;;;;;;;;;;;;;21.10;58.08;100425.59;2218070;79;51422;-75
2023/05/10 14:55:44;;;;;;;;;;;;;;;21.13;57.95;100418.97;2243992;79;50264;-75
2023/05/10 14:58:45;;;;;;;;;;;;;;;21.15;57.94;100431.70;2243696;79;51382;-75
2023/05/10 15:01:47;;;;;;;;;;;;;;;21.18;57.93;100430.47;2217047;79;51470;-75
2023/05/10 15:04:48;;;;;;;;;;;;;;;21.17;57.97;100428.30;2244046;79;51450;-75
2023/05/10 15:07:50;;;;;;;;;;;;;;;21.18;58.01;100421.05;2236790;78;52236;-75
2023/05/10 15:10:52;;;;;;;;;;;;;;;21.17;58.04;100430.98;2217816;79;50314;-75
2023/05/10 15:13:53;;;;;;;;;;;;;;;21.15;58.12;100432.23;2243978;79;51522;-74
2023/05/10 15:16:55;;;;;;;;;;;;;;;21.15;58.11;100443.81;2243964;79;51629;-75
2023/05/10 15:19:57;;;;;;;;;;;;;;;21.15;58.07;100430.88;2245560;79;51617;-75
2023/05/10 15:22:58;;;;;;;;;;;;;;;21.14;58.12;100446.70;2242669;78;51496;-75
2023/05/10 15:26:00;;;;;;;;;;;;;;;21.12;58.18;100443.38;2248071;79;50682;-76
2023/05/10 15:29:02;;;;;;;;;;;;;;;21.10;58.16;100438.22;2242315;78;50681;-75
2023/05/10 15:32:03;;;;;;;;;;;;;;;21.13;58.10;100443.70;2216344;79;52479;-75
2023/05/10 15:35:06;;;;;;;;;;;;;;;21.12;58.07;100443.38;2192263;79;50234;-75
2023/05/10 15:38:07;;;;;;;;;;;;;;;21.09;58.15;100441.43;2207093;79;51464;-76
2023/05/10 15:41:09;;;;;;;;;;;;;;;21.07;58.18;100436.77;2206082;80;51449;-75